sensor_id;sensor_type;location;lat;lon;timestamp;P1;durP1;ratioP1;P2;durP2;ratioP2
58095;SDS011;43908;53.038;6.666;2022-07-31T00:00:04;5.55;;;2.70;;
58095;SDS011;43908;53.038;6.666;2022-07-31T00:02:31;3.95;;;2.35;;
58095;SDS011;43908;53.038;6.666;2022-07-31T00:04:56;2.75;;;2.30;;
58095;SDS011;43908;53.038;6.666;2022-07-31T00:07:22;3.45;;;2.65;;
58095;SDS011;43908;53.038;6.666;2022-07-31T00:09:47;4.05;;;2.30;;
58095;SDS011;43908;53.038;6.666;2022-07-31T00:12:13;2.20;;;2.00;;
58095;SDS011;43908;53.038;6.666;2022-07-31T00:14:38;2.80;;;1.85;;
58095;SDS011;43908;53.038;6.666;2022-07-31T00:17:04;4.20;;;2.70;;
58095;SDS011;43908;53.038;6.666;2022-07-31T00:19:30;3.45;;;2.20;;
58095;SDS011;43908;53.038;6.666;2022-07-31T00:21:55;3.72;;;2.13;;
58095;SDS011;43908;53.038;6.666;2022-07-31T00:24:22;4.40;;;2.20;;
58095;SDS011;43908;53.038;6.666;2022-07-31T00:26:48;2.80;;;2.03;;
58095;SDS011;43908;53.038;6.666;2022-07-31T00:29:13;3.65;;;2.10;;
58095;SDS011;43908;53.038;6.666;2022-07-31T00:31:39;4.50;;;2.22;;
58095;SDS011;43908;53.038;6.666;2022-07-31T00:34:05;3.20;;;2.33;;
58095;SDS011;43908;53.038;6.666;2022-07-31T00:36:30;4.25;;;2.10;;
58095;SDS011;43908;53.038;6.666;2022-07-31T00:38:56;3.20;;;2.30;;
58095;SDS011;43908;53.038;6.666;2022-07-31T00:41:22;3.53;;;2.45;;
58095;SDS011;43908;53.038;6.666;2022-07-31T00:43:48;3.47;;;2.45;;
58095;SDS011;43908;53.038;6.666;2022-07-31T00:46:14;4.13;;;2.28;;
58095;SDS011;43908;53.038;6.666;2022-07-31T00:48:40;4.20;;;2.38;;
58095;SDS011;43908;53.038;6.666;2022-07-31T00:51:05;2.63;;;1.90;;
58095;SDS011;43908;53.038;6.666;2022-07-31T00:53:31;4.18;;;2.20;;
58095;SDS011;43908;53.038;6.666;2022-07-31T00:55:57;5.30;;;2.75;;
58095;SDS011;43908;53.038;6.666;2022-07-31T00:58:23;4.07;;;2.10;;
58095;SDS011;43908;53.038;6.666;2022-07-31T01:00:48;2.30;;;2.03;;
58095;SDS011;43908;53.038;6.666;2022-07-31T01:03:14;4.22;;;2.65;;
58095;SDS011;43908;53.038;6.666;2022-07-31T01:05:40;3.72;;;1.98;;
58095;SDS011;43908;53.038;6.666;2022-07-31T01:08:06;4.63;;;2.17;;
58095;SDS011;43908;53.038;6.666;2022-07-31T01:10:37;4.43;;;2.70;;
58095;SDS011;43908;53.038;6.666;2022-07-31T01:13:19;4.25;;;2.58;;
58095;SDS011;43908;53.038;6.666;2022-07-31T01:15:54;3.22;;;2.13;;
58095;SDS011;43908;53.038;6.666;2022-07-31T01:18:21;3.63;;;2.40;;
58095;SDS011;43908;53.038;6.666;2022-07-31T01:20:49;3.03;;;2.47;;
58095;SDS011;43908;53.038;6.666;2022-07-31T01:31:26;4.78;;;2.42;;
58095;SDS011;43908;53.038;6.666;2022-07-31T01:36:54;3.47;;;2.40;;
58095;SDS011;43908;53.038;6.666;2022-07-31T01:39:24;6.68;;;3.08;;
58095;SDS011;43908;53.038;6.666;2022-07-31T01:41:50;2.60;;;2.40;;
58095;SDS011;43908;53.038;6.666;2022-07-31T01:44:18;2.50;;;2.30;;
58095;SDS011;43908;53.038;6.666;2022-07-31T01:46:45;3.35;;;2.55;;
58095;SDS011;43908;53.038;6.666;2022-07-31T01:49:12;3.55;;;2.50;;
58095;SDS011;43908;53.038;6.666;2022-07-31T01:51:39;4.05;;;2.47;;
58095;SDS011;43908;53.038;6.666;2022-07-31T01:54:07;2.97;;;2.67;;
58095;SDS011;43908;53.038;6.666;2022-07-31T01:56:34;3.22;;;2.60;;
58095;SDS011;43908;53.038;6.666;2022-07-31T01:59:00;3.00;;;2.72;;
58095;SDS011;43908;53.038;6.666;2022-07-31T02:01:27;4.72;;;2.50;;
58095;SDS011;43908;53.038;6.666;2022-07-31T02:03:54;3.78;;;2.83;;
58095;SDS011;43908;53.038;6.666;2022-07-31T02:06:21;2.90;;;2.58;;
58095;SDS011;43908;53.038;6.666;2022-07-31T02:08:49;3.08;;;2.75;;
58095;SDS011;43908;53.038;6.666;2022-07-31T02:11:17;3.92;;;2.58;;
58095;SDS011;43908;53.038;6.666;2022-07-31T02:13:44;4.93;;;2.45;;
58095;SDS011;43908;53.038;6.666;2022-07-31T02:16:12;7.47;;;3.00;;
58095;SDS011;43908;53.038;6.666;2022-07-31T02:18:39;3.92;;;2.72;;
58095;SDS011;43908;53.038;6.666;2022-07-31T02:21:05;3.47;;;2.92;;
58095;SDS011;43908;53.038;6.666;2022-07-31T02:23:31;5.15;;;3.20;;
58095;SDS011;43908;53.038;6.666;2022-07-31T02:25:58;4.65;;;3.00;;
58095;SDS011;43908;53.038;6.666;2022-07-31T02:28:25;5.07;;;2.67;;
58095;SDS011;43908;53.038;6.666;2022-07-31T02:30:52;4.97;;;3.35;;
58095;SDS011;43908;53.038;6.666;2022-07-31T02:33:20;3.25;;;3.00;;
58095;SDS011;43908;53.038;6.666;2022-07-31T02:35:47;3.55;;;3.00;;
58095;SDS011;43908;53.038;6.666;2022-07-31T02:38:14;3.83;;;3.00;;
58095;SDS011;43908;53.038;6.666;2022-07-31T02:40:43;4.75;;;3.35;;
58095;SDS011;43908;53.038;6.666;2022-07-31T02:43:09;3.55;;;3.25;;
58095;SDS011;43908;53.038;6.666;2022-07-31T02:45:36;4.93;;;3.30;;
58095;SDS011;43908;53.038;6.666;2022-07-31T02:48:03;5.40;;;3.17;;
58095;SDS011;43908;53.038;6.666;2022-07-31T02:50:29;3.90;;;3.10;;
58095;SDS011;43908;53.038;6.666;2022-07-31T02:52:55;4.30;;;2.95;;
58095;SDS011;43908;53.038;6.666;2022-07-31T02:55:21;4.07;;;2.92;;
58095;SDS011;43908;53.038;6.666;2022-07-31T02:57:46;3.45;;;2.80;;
58095;SDS011;43908;53.038;6.666;2022-07-31T03:00:21;5.13;;;3.08;;
58095;SDS011;43908;53.038;6.666;2022-07-31T03:02:50;5.78;;;3.10;;
58095;SDS011;43908;53.038;6.666;2022-07-31T03:05:17;4.22;;;2.90;;
58095;SDS011;43908;53.038;6.666;2022-07-31T03:07:43;3.00;;;2.72;;
58095;SDS011;43908;53.038;6.666;2022-07-31T03:10:09;3.20;;;2.90;;
58095;SDS011;43908;53.038;6.666;2022-07-31T03:12:45;3.55;;;3.00;;
58095;SDS011;43908;53.038;6.666;2022-07-31T03:15:13;4.03;;;3.10;;
58095;SDS011;43908;53.038;6.666;2022-07-31T03:17:41;5.35;;;2.78;;
58095;SDS011;43908;53.038;6.666;2022-07-31T03:20:08;6.20;;;3.40;;
58095;SDS011;43908;53.038;6.666;2022-07-31T03:22:34;5.10;;;2.90;;
58095;SDS011;43908;53.038;6.666;2022-07-31T03:25:01;3.20;;;2.90;;
58095;SDS011;43908;53.038;6.666;2022-07-31T03:27:27;3.35;;;3.08;;
58095;SDS011;43908;53.038;6.666;2022-07-31T03:29:53;4.72;;;2.83;;
58095;SDS011;43908;53.038;6.666;2022-07-31T03:32:19;4.03;;;2.30;;
58095;SDS011;43908;53.038;6.666;2022-07-31T03:34:45;2.85;;;2.65;;
58095;SDS011;43908;53.038;6.666;2022-07-31T03:37:11;3.92;;;2.53;;
58095;SDS011;43908;53.038;6.666;2022-07-31T03:39:37;4.50;;;2.90;;
58095;SDS011;43908;53.038;6.666;2022-07-31T03:42:03;5.03;;;3.05;;
58095;SDS011;43908;53.038;6.666;2022-07-31T03:44:29;5.85;;;2.60;;
58095;SDS011;43908;53.038;6.666;2022-07-31T03:46:56;3.78;;;2.65;;
58095;SDS011;43908;53.038;6.666;2022-07-31T03:49:23;5.63;;;3.05;;
58095;SDS011;43908;53.038;6.666;2022-07-31T03:51:49;3.65;;;2.78;;
58095;SDS011;43908;53.038;6.666;2022-07-31T03:54:14;3.17;;;2.65;;
58095;SDS011;43908;53.038;6.666;2022-07-31T03:56:42;3.72;;;2.92;;
58095;SDS011;43908;53.038;6.666;2022-07-31T03:59:12;5.30;;;2.80;;
58095;SDS011;43908;53.038;6.666;2022-07-31T04:01:39;7.10;;;3.08;;
58095;SDS011;43908;53.038;6.666;2022-07-31T04:04:05;7.45;;;2.90;;
58095;SDS011;43908;53.038;6.666;2022-07-31T04:06:31;3.38;;;2.97;;
58095;SDS011;43908;53.038;6.666;2022-07-31T04:08:57;5.03;;;2.78;;
58095;SDS011;43908;53.038;6.666;2022-07-31T04:11:25;4.93;;;2.83;;
58095;SDS011;43908;53.038;6.666;2022-07-31T04:13:52;3.72;;;3.08;;
58095;SDS011;43908;53.038;6.666;2022-07-31T04:16:17;5.55;;;2.88;;
58095;SDS011;43908;53.038;6.666;2022-07-31T04:18:43;5.25;;;2.40;;
58095;SDS011;43908;53.038;6.666;2022-07-31T04:21:08;3.40;;;3.10;;
58095;SDS011;43908;53.038;6.666;2022-07-31T04:23:34;4.28;;;3.20;;
58095;SDS011;43908;53.038;6.666;2022-07-31T04:26:00;3.67;;;3.10;;
58095;SDS011;43908;53.038;6.666;2022-07-31T04:28:25;3.85;;;2.75;;
58095;SDS011;43908;53.038;6.666;2022-07-31T04:30:51;30.98;;;5.10;;
58095;SDS011;43908;53.038;6.666;2022-07-31T04:33:16;3.33;;;2.72;;
58095;SDS011;43908;53.038;6.666;2022-07-31T04:35:42;3.13;;;2.60;;
58095;SDS011;43908;53.038;6.666;2022-07-31T04:38:08;2.90;;;2.38;;
58095;SDS011;43908;53.038;6.666;2022-07-31T04:40:35;2.50;;;2.30;;
58095;SDS011;43908;53.038;6.666;2022-07-31T04:43:01;4.22;;;2.20;;
58095;SDS011;43908;53.038;6.666;2022-07-31T04:45:27;4.25;;;2.65;;
58095;SDS011;43908;53.038;6.666;2022-07-31T04:47:52;2.65;;;2.45;;
58095;SDS011;43908;53.038;6.666;2022-07-31T04:50:18;5.72;;;2.60;;
58095;SDS011;43908;53.038;6.666;2022-07-31T04:52:43;3.53;;;2.88;;
58095;SDS011;43908;53.038;6.666;2022-07-31T04:55:09;4.47;;;2.80;;
58095;SDS011;43908;53.038;6.666;2022-07-31T04:57:34;3.22;;;2.63;;
58095;SDS011;43908;53.038;6.666;2022-07-31T05:00:00;3.95;;;2.50;;
58095;SDS011;43908;53.038;6.666;2022-07-31T05:02:26;4.05;;;2.50;;
58095;SDS011;43908;53.038;6.666;2022-07-31T05:04:52;3.63;;;2.40;;
58095;SDS011;43908;53.038;6.666;2022-07-31T05:07:17;3.38;;;2.78;;
58095;SDS011;43908;53.038;6.666;2022-07-31T05:09:43;3.72;;;2.85;;
58095;SDS011;43908;53.038;6.666;2022-07-31T05:12:08;5.47;;;2.70;;
58095;SDS011;43908;53.038;6.666;2022-07-31T05:14:34;4.35;;;3.20;;
58095;SDS011;43908;53.038;6.666;2022-07-31T05:16:59;3.28;;;2.97;;
58095;SDS011;43908;53.038;6.666;2022-07-31T05:19:25;3.90;;;2.85;;
58095;SDS011;43908;53.038;6.666;2022-07-31T05:21:53;3.28;;;2.90;;
58095;SDS011;43908;53.038;6.666;2022-07-31T05:24:20;4.05;;;2.80;;
58095;SDS011;43908;53.038;6.666;2022-07-31T05:26:46;3.00;;;2.70;;
58095;SDS011;43908;53.038;6.666;2022-07-31T05:29:12;5.28;;;2.78;;
58095;SDS011;43908;53.038;6.666;2022-07-31T05:31:37;3.88;;;2.90;;
58095;SDS011;43908;53.038;6.666;2022-07-31T05:34:03;5.38;;;3.08;;
58095;SDS011;43908;53.038;6.666;2022-07-31T05:36:28;3.03;;;2.80;;
58095;SDS011;43908;53.038;6.666;2022-07-31T05:38:54;4.55;;;3.30;;
58095;SDS011;43908;53.038;6.666;2022-07-31T05:41:19;3.95;;;3.20;;
58095;SDS011;43908;53.038;6.666;2022-07-31T05:43:45;3.60;;;3.30;;
58095;SDS011;43908;53.038;6.666;2022-07-31T05:46:10;4.85;;;3.08;;
58095;SDS011;43908;53.038;6.666;2022-07-31T05:48:38;4.35;;;3.08;;
58095;SDS011;43908;53.038;6.666;2022-07-31T05:51:07;6.90;;;3.20;;
58095;SDS011;43908;53.038;6.666;2022-07-31T05:53:36;3.28;;;2.97;;
58095;SDS011;43908;53.038;6.666;2022-07-31T05:56:03;4.15;;;3.00;;
58095;SDS011;43908;53.038;6.666;2022-07-31T05:58:29;5.10;;;3.20;;
58095;SDS011;43908;53.038;6.666;2022-07-31T06:00:55;4.45;;;3.47;;
58095;SDS011;43908;53.038;6.666;2022-07-31T06:03:21;3.90;;;3.50;;
58095;SDS011;43908;53.038;6.666;2022-07-31T06:05:48;4.72;;;2.88;;
58095;SDS011;43908;53.038;6.666;2022-07-31T06:08:14;5.65;;;3.70;;
58095;SDS011;43908;53.038;6.666;2022-07-31T06:10:40;5.75;;;3.30;;
58095;SDS011;43908;53.038;6.666;2022-07-31T06:13:06;3.75;;;3.15;;
58095;SDS011;43908;53.038;6.666;2022-07-31T06:15:31;8.13;;;3.42;;
58095;SDS011;43908;53.038;6.666;2022-07-31T06:17:57;4.25;;;3.80;;
58095;SDS011;43908;53.038;6.666;2022-07-31T06:20:23;5.20;;;3.80;;
58095;SDS011;43908;53.038;6.666;2022-07-31T06:22:49;4.93;;;3.63;;
58095;SDS011;43908;53.038;6.666;2022-07-31T06:25:14;8.20;;;3.60;;
58095;SDS011;43908;53.038;6.666;2022-07-31T06:27:40;4.60;;;4.00;;
58095;SDS011;43908;53.038;6.666;2022-07-31T06:30:06;7.22;;;3.97;;
58095;SDS011;43908;53.038;6.666;2022-07-31T06:32:33;3.95;;;3.65;;
58095;SDS011;43908;53.038;6.666;2022-07-31T06:34:59;4.05;;;3.75;;
58095;SDS011;43908;53.038;6.666;2022-07-31T06:37:25;4.22;;;3.72;;
58095;SDS011;43908;53.038;6.666;2022-07-31T06:39:51;6.47;;;4.28;;
58095;SDS011;43908;53.038;6.666;2022-07-31T06:42:18;4.25;;;3.85;;
58095;SDS011;43908;53.038;6.666;2022-07-31T06:44:44;4.72;;;4.22;;
58095;SDS011;43908;53.038;6.666;2022-07-31T06:47:10;4.20;;;3.80;;
58095;SDS011;43908;53.038;6.666;2022-07-31T06:49:36;6.95;;;4.00;;
58095;SDS011;43908;53.038;6.666;2022-07-31T06:52:01;6.78;;;3.60;;
58095;SDS011;43908;53.038;6.666;2022-07-31T06:54:27;5.53;;;3.85;;
58095;SDS011;43908;53.038;6.666;2022-07-31T06:56:53;6.82;;;3.97;;
58095;SDS011;43908;53.038;6.666;2022-07-31T06:59:18;5.32;;;4.25;;
58095;SDS011;43908;53.038;6.666;2022-07-31T07:01:44;4.30;;;3.85;;
58095;SDS011;43908;53.038;6.666;2022-07-31T07:04:09;8.52;;;4.00;;
58095;SDS011;43908;53.038;6.666;2022-07-31T07:06:35;4.95;;;3.58;;
58095;SDS011;43908;53.038;6.666;2022-07-31T07:09:00;4.47;;;3.78;;
58095;SDS011;43908;53.038;6.666;2022-07-31T07:11:26;6.45;;;4.40;;
58095;SDS011;43908;53.038;6.666;2022-07-31T07:13:51;4.00;;;3.60;;
58095;SDS011;43908;53.038;6.666;2022-07-31T07:16:17;5.07;;;3.70;;
58095;SDS011;43908;53.038;6.666;2022-07-31T07:18:42;4.20;;;3.80;;
58095;SDS011;43908;53.038;6.666;2022-07-31T07:21:08;4.40;;;4.00;;
58095;SDS011;43908;53.038;6.666;2022-07-31T07:23:34;4.43;;;4.13;;
58095;SDS011;43908;53.038;6.666;2022-07-31T07:26:00;8.02;;;4.32;;
58095;SDS011;43908;53.038;6.666;2022-07-31T07:28:25;4.40;;;3.72;;
58095;SDS011;43908;53.038;6.666;2022-07-31T07:30:51;5.40;;;4.05;;
58095;SDS011;43908;53.038;6.666;2022-07-31T07:33:16;4.50;;;4.10;;
58095;SDS011;43908;53.038;6.666;2022-07-31T07:35:42;7.50;;;4.70;;
58095;SDS011;43908;53.038;6.666;2022-07-31T07:38:08;6.43;;;4.38;;
58095;SDS011;43908;53.038;6.666;2022-07-31T07:40:33;5.15;;;4.00;;
58095;SDS011;43908;53.038;6.666;2022-07-31T07:42:59;6.47;;;4.00;;
58095;SDS011;43908;53.038;6.666;2022-07-31T07:45:25;6.07;;;4.25;;
58095;SDS011;43908;53.038;6.666;2022-07-31T07:47:50;8.23;;;4.63;;
58095;SDS011;43908;53.038;6.666;2022-07-31T07:50:16;6.50;;;4.60;;
58095;SDS011;43908;53.038;6.666;2022-07-31T07:52:42;5.72;;;4.95;;
58095;SDS011;43908;53.038;6.666;2022-07-31T07:55:08;7.03;;;4.88;;
58095;SDS011;43908;53.038;6.666;2022-07-31T07:57:36;6.38;;;4.45;;
58095;SDS011;43908;53.038;6.666;2022-07-31T08:00:03;5.50;;;5.00;;
58095;SDS011;43908;53.038;6.666;2022-07-31T08:02:31;6.47;;;5.07;;
58095;SDS011;43908;53.038;6.666;2022-07-31T08:04:57;6.18;;;5.30;;
58095;SDS011;43908;53.038;6.666;2022-07-31T08:07:27;6.95;;;5.32;;
58095;SDS011;43908;53.038;6.666;2022-07-31T08:09:57;8.10;;;5.95;;
58095;SDS011;43908;53.038;6.666;2022-07-31T08:12:23;6.68;;;5.85;;
58095;SDS011;43908;53.038;6.666;2022-07-31T08:14:49;5.70;;;5.20;;
58095;SDS011;43908;53.038;6.666;2022-07-31T08:17:15;6.15;;;4.60;;
58095;SDS011;43908;53.038;6.666;2022-07-31T08:19:40;6.57;;;5.90;;
58095;SDS011;43908;53.038;6.666;2022-07-31T08:22:06;7.18;;;5.00;;
58095;SDS011;43908;53.038;6.666;2022-07-31T08:24:32;10.68;;;5.75;;
58095;SDS011;43908;53.038;6.666;2022-07-31T08:26:58;8.30;;;6.30;;
58095;SDS011;43908;53.038;6.666;2022-07-31T08:29:42;8.13;;;5.85;;
58095;SDS011;43908;53.038;6.666;2022-07-31T08:32:09;7.97;;;6.38;;
58095;SDS011;43908;53.038;6.666;2022-07-31T08:34:35;7.10;;;5.53;;
58095;SDS011;43908;53.038;6.666;2022-07-31T08:37:01;6.55;;;5.53;;
58095;SDS011;43908;53.038;6.666;2022-07-31T08:39:28;8.93;;;6.05;;
58095;SDS011;43908;53.038;6.666;2022-07-31T08:41:53;6.25;;;5.65;;
58095;SDS011;43908;53.038;6.666;2022-07-31T08:44:19;6.78;;;5.78;;
58095;SDS011;43908;53.038;6.666;2022-07-31T08:46:45;6.97;;;6.10;;
58095;SDS011;43908;53.038;6.666;2022-07-31T08:49:11;8.18;;;6.35;;
58095;SDS011;43908;53.038;6.666;2022-07-31T08:51:40;9.65;;;6.50;;
58095;SDS011;43908;53.038;6.666;2022-07-31T08:54:08;8.10;;;6.15;;
58095;SDS011;43908;53.038;6.666;2022-07-31T08:56:35;8.77;;;6.45;;
58095;SDS011;43908;53.038;6.666;2022-07-31T08:59:02;7.82;;;6.18;;
58095;SDS011;43908;53.038;6.666;2022-07-31T09:01:28;7.32;;;6.18;;
58095;SDS011;43908;53.038;6.666;2022-07-31T09:03:57;8.52;;;6.85;;
58095;SDS011;43908;53.038;6.666;2022-07-31T09:06:23;7.43;;;6.72;;
58095;SDS011;43908;53.038;6.666;2022-07-31T09:08:48;8.80;;;7.15;;
58095;SDS011;43908;53.038;6.666;2022-07-31T09:11:14;9.50;;;7.20;;
58095;SDS011;43908;53.038;6.666;2022-07-31T09:13:51;8.10;;;7.30;;
58095;SDS011;43908;53.038;6.666;2022-07-31T09:16:21;7.37;;;6.77;;
58095;SDS011;43908;53.038;6.666;2022-07-31T09:19:00;9.88;;;8.20;;
58095;SDS011;43908;53.038;6.666;2022-07-31T09:21:37;9.43;;;8.00;;
58095;SDS011;43908;53.038;6.666;2022-07-31T09:24:04;10.23;;;8.15;;
58095;SDS011;43908;53.038;6.666;2022-07-31T09:26:32;8.93;;;8.02;;
58095;SDS011;43908;53.038;6.666;2022-07-31T09:28:59;9.10;;;7.35;;
58095;SDS011;43908;53.038;6.666;2022-07-31T09:31:33;9.55;;;8.65;;
58095;SDS011;43908;53.038;6.666;2022-07-31T09:33:59;12.50;;;9.00;;
58095;SDS011;43908;53.038;6.666;2022-07-31T09:36:25;9.88;;;8.13;;
58095;SDS011;43908;53.038;6.666;2022-07-31T09:38:50;8.88;;;7.97;;
58095;SDS011;43908;53.038;6.666;2022-07-31T09:41:17;10.25;;;8.40;;
58095;SDS011;43908;53.038;6.666;2022-07-31T09:43:54;8.90;;;7.88;;
58095;SDS011;43908;53.038;6.666;2022-07-31T09:46:21;9.77;;;8.55;;
58095;SDS011;43908;53.038;6.666;2022-07-31T09:48:50;9.88;;;8.85;;
58095;SDS011;43908;53.038;6.666;2022-07-31T09:51:19;11.27;;;10.18;;
58095;SDS011;43908;53.038;6.666;2022-07-31T09:53:49;12.88;;;10.77;;
58095;SDS011;43908;53.038;6.666;2022-07-31T09:56:33;10.65;;;9.65;;
58095;SDS011;43908;53.038;6.666;2022-07-31T09:59:00;11.27;;;10.23;;
58095;SDS011;43908;53.038;6.666;2022-07-31T10:01:26;12.02;;;10.82;;
58095;SDS011;43908;53.038;6.666;2022-07-31T10:03:55;11.48;;;10.30;;
58095;SDS011;43908;53.038;6.666;2022-07-31T10:06:24;12.30;;;11.07;;
58095;SDS011;43908;53.038;6.666;2022-07-31T10:08:51;12.27;;;11.00;;
58095;SDS011;43908;53.038;6.666;2022-07-31T10:11:19;12.68;;;11.52;;
58095;SDS011;43908;53.038;6.666;2022-07-31T10:13:47;13.30;;;12.10;;
58095;SDS011;43908;53.038;6.666;2022-07-31T10:16:14;12.23;;;10.93;;
58095;SDS011;43908;53.038;6.666;2022-07-31T10:18:41;12.27;;;10.90;;
58095;SDS011;43908;53.038;6.666;2022-07-31T10:21:11;11.80;;;10.63;;
58095;SDS011;43908;53.038;6.666;2022-07-31T10:23:40;12.32;;;11.25;;
58095;SDS011;43908;53.038;6.666;2022-07-31T10:26:08;11.13;;;9.77;;
58095;SDS011;43908;53.038;6.666;2022-07-31T10:28:37;12.32;;;11.25;;
58095;SDS011;43908;53.038;6.666;2022-07-31T10:31:04;12.40;;;11.05;;
58095;SDS011;43908;53.038;6.666;2022-07-31T10:33:30;12.60;;;11.35;;
58095;SDS011;43908;53.038;6.666;2022-07-31T10:36:04;11.73;;;10.52;;
58095;SDS011;43908;53.038;6.666;2022-07-31T10:38:47;11.98;;;10.88;;
58095;SDS011;43908;53.038;6.666;2022-07-31T10:41:22;11.40;;;10.20;;
58095;SDS011;43908;53.038;6.666;2022-07-31T10:43:59;11.63;;;10.48;;
58095;SDS011;43908;53.038;6.666;2022-07-31T10:46:30;11.07;;;10.02;;
58095;SDS011;43908;53.038;6.666;2022-07-31T10:48:56;9.43;;;8.50;;
58095;SDS011;43908;53.038;6.666;2022-07-31T10:51:22;10.45;;;9.38;;
58095;SDS011;43908;53.038;6.666;2022-07-31T10:53:52;13.18;;;9.82;;
58095;SDS011;43908;53.038;6.666;2022-07-31T10:56:19;11.05;;;10.15;;
58095;SDS011;43908;53.038;6.666;2022-07-31T10:58:48;9.90;;;9.00;;
58095;SDS011;43908;53.038;6.666;2022-07-31T11:01:16;10.45;;;9.45;;
58095;SDS011;43908;53.038;6.666;2022-07-31T11:03:42;11.90;;;10.70;;
58095;SDS011;43908;53.038;6.666;2022-07-31T11:06:11;10.73;;;9.65;;
58095;SDS011;43908;53.038;6.666;2022-07-31T11:08:45;11.02;;;9.80;;
58095;SDS011;43908;53.038;6.666;2022-07-31T11:11:12;11.07;;;10.17;;
58095;SDS011;43908;53.038;6.666;2022-07-31T11:13:45;11.60;;;10.70;;
58095;SDS011;43908;53.038;6.666;2022-07-31T11:16:12;11.88;;;10.80;;
58095;SDS011;43908;53.038;6.666;2022-07-31T11:18:38;12.05;;;11.05;;
58095;SDS011;43908;53.038;6.666;2022-07-31T11:21:05;13.63;;;12.50;;
58095;SDS011;43908;53.038;6.666;2022-07-31T11:23:32;13.13;;;11.85;;
58095;SDS011;43908;53.038;6.666;2022-07-31T11:26:03;12.70;;;11.60;;
58095;SDS011;43908;53.038;6.666;2022-07-31T11:28:30;13.70;;;12.40;;
58095;SDS011;43908;53.038;6.666;2022-07-31T11:33:40;13.95;;;12.85;;
58095;SDS011;43908;53.038;6.666;2022-07-31T11:38:49;13.90;;;12.70;;
58095;SDS011;43908;53.038;6.666;2022-07-31T11:41:20;12.75;;;11.65;;
58095;SDS011;43908;53.038;6.666;2022-07-31T11:43:51;15.10;;;13.70;;
58095;SDS011;43908;53.038;6.666;2022-07-31T11:46:28;15.50;;;13.98;;
58095;SDS011;43908;53.038;6.666;2022-07-31T11:48:57;14.90;;;13.55;;
58095;SDS011;43908;53.038;6.666;2022-07-31T11:51:24;15.65;;;13.68;;
58095;SDS011;43908;53.038;6.666;2022-07-31T11:53:51;16.25;;;14.80;;
58095;SDS011;43908;53.038;6.666;2022-07-31T11:56:19;16.42;;;14.95;;
58095;SDS011;43908;53.038;6.666;2022-07-31T11:58:46;15.43;;;13.88;;
58095;SDS011;43908;53.038;6.666;2022-07-31T12:01:13;16.27;;;14.38;;
58095;SDS011;43908;53.038;6.666;2022-07-31T12:03:39;15.75;;;14.25;;
58095;SDS011;43908;53.038;6.666;2022-07-31T12:06:05;17.23;;;15.55;;
58095;SDS011;43908;53.038;6.666;2022-07-31T12:08:32;14.88;;;13.57;;
58095;SDS011;43908;53.038;6.666;2022-07-31T12:10:59;15.05;;;13.65;;
58095;SDS011;43908;53.038;6.666;2022-07-31T12:13:28;16.23;;;14.82;;
58095;SDS011;43908;53.038;6.666;2022-07-31T12:18:23;15.88;;;14.38;;
58095;SDS011;43908;53.038;6.666;2022-07-31T12:20:53;15.15;;;13.65;;
58095;SDS011;43908;53.038;6.666;2022-07-31T12:23:21;16.13;;;14.65;;
58095;SDS011;43908;53.038;6.666;2022-07-31T12:25:47;16.27;;;14.65;;
58095;SDS011;43908;53.038;6.666;2022-07-31T12:28:13;16.10;;;14.60;;
58095;SDS011;43908;53.038;6.666;2022-07-31T12:30:39;16.08;;;14.65;;
58095;SDS011;43908;53.038;6.666;2022-07-31T12:33:06;16.27;;;14.77;;
58095;SDS011;43908;53.038;6.666;2022-07-31T12:35:37;16.35;;;14.95;;
58095;SDS011;43908;53.038;6.666;2022-07-31T12:38:03;16.08;;;14.48;;
58095;SDS011;43908;53.038;6.666;2022-07-31T12:40:29;16.95;;;15.50;;
58095;SDS011;43908;53.038;6.666;2022-07-31T12:42:55;16.85;;;15.45;;
58095;SDS011;43908;53.038;6.666;2022-07-31T12:45:36;17.55;;;15.98;;
58095;SDS011;43908;53.038;6.666;2022-07-31T12:48:03;18.30;;;16.80;;
58095;SDS011;43908;53.038;6.666;2022-07-31T12:50:29;18.65;;;17.05;;
58095;SDS011;43908;53.038;6.666;2022-07-31T12:52:57;20.40;;;18.75;;
58095;SDS011;43908;53.038;6.666;2022-07-31T12:55:25;19.92;;;18.25;;
58095;SDS011;43908;53.038;6.666;2022-07-31T12:57:51;20.55;;;18.83;;
58095;SDS011;43908;53.038;6.666;2022-07-31T13:00:17;21.30;;;19.50;;
58095;SDS011;43908;53.038;6.666;2022-07-31T13:02:44;20.63;;;18.75;;
58095;SDS011;43908;53.038;6.666;2022-07-31T13:05:09;20.73;;;18.92;;
58095;SDS011;43908;53.038;6.666;2022-07-31T13:07:35;20.90;;;19.08;;
58095;SDS011;43908;53.038;6.666;2022-07-31T13:10:01;21.35;;;19.55;;
58095;SDS011;43908;53.038;6.666;2022-07-31T13:12:26;21.08;;;19.30;;
58095;SDS011;43908;53.038;6.666;2022-07-31T13:14:52;19.80;;;18.20;;
58095;SDS011;43908;53.038;6.666;2022-07-31T13:17:17;22.20;;;20.23;;
58095;SDS011;43908;53.038;6.666;2022-07-31T13:19:43;20.80;;;19.02;;
58095;SDS011;43908;53.038;6.666;2022-07-31T13:22:08;21.23;;;19.50;;
58095;SDS011;43908;53.038;6.666;2022-07-31T13:24:34;20.92;;;18.85;;
58095;SDS011;43908;53.038;6.666;2022-07-31T13:27:00;21.00;;;19.10;;
58095;SDS011;43908;53.038;6.666;2022-07-31T13:29:25;22.20;;;20.23;;
58095;SDS011;43908;53.038;6.666;2022-07-31T13:31:51;20.02;;;18.33;;
58095;SDS011;43908;53.038;6.666;2022-07-31T13:34:17;20.10;;;18.27;;
58095;SDS011;43908;53.038;6.666;2022-07-31T13:36:42;21.92;;;19.85;;
58095;SDS011;43908;53.038;6.666;2022-07-31T13:39:08;22.00;;;20.10;;
58095;SDS011;43908;53.038;6.666;2022-07-31T13:41:34;19.88;;;17.98;;
58095;SDS011;43908;53.038;6.666;2022-07-31T13:44:00;19.30;;;17.70;;
58095;SDS011;43908;53.038;6.666;2022-07-31T13:46:27;19.55;;;17.85;;
58095;SDS011;43908;53.038;6.666;2022-07-31T13:48:53;18.27;;;16.70;;
58095;SDS011;43908;53.038;6.666;2022-07-31T13:51:20;17.35;;;15.85;;
58095;SDS011;43908;53.038;6.666;2022-07-31T13:53:46;17.70;;;16.20;;
58095;SDS011;43908;53.038;6.666;2022-07-31T13:56:13;17.15;;;15.75;;
58095;SDS011;43908;53.038;6.666;2022-07-31T13:58:39;15.02;;;13.73;;
58095;SDS011;43908;53.038;6.666;2022-07-31T14:01:05;16.20;;;14.90;;
58095;SDS011;43908;53.038;6.666;2022-07-31T14:03:30;13.48;;;12.27;;
58095;SDS011;43908;53.038;6.666;2022-07-31T14:05:56;12.50;;;11.50;;
58095;SDS011;43908;53.038;6.666;2022-07-31T14:08:22;12.05;;;11.05;;
58095;SDS011;43908;53.038;6.666;2022-07-31T14:10:48;12.13;;;11.13;;
58095;SDS011;43908;53.038;6.666;2022-07-31T14:13:14;9.82;;;9.05;;
58095;SDS011;43908;53.038;6.666;2022-07-31T14:15:40;9.20;;;8.50;;
58095;SDS011;43908;53.038;6.666;2022-07-31T14:18:06;7.93;;;7.20;;
58095;SDS011;43908;53.038;6.666;2022-07-31T14:20:32;7.95;;;7.25;;
58095;SDS011;43908;53.038;6.666;2022-07-31T14:22:58;7.43;;;6.82;;
58095;SDS011;43908;53.038;6.666;2022-07-31T14:25:26;7.15;;;5.93;;
58095;SDS011;43908;53.038;6.666;2022-07-31T14:27:52;6.63;;;6.13;;
58095;SDS011;43908;53.038;6.666;2022-07-31T14:30:18;6.10;;;5.60;;
58095;SDS011;43908;53.038;6.666;2022-07-31T14:32:44;4.63;;;4.22;;
58095;SDS011;43908;53.038;6.666;2022-07-31T14:35:09;5.20;;;4.70;;
58095;SDS011;43908;53.038;6.666;2022-07-31T14:37:36;4.68;;;4.35;;
58095;SDS011;43908;53.038;6.666;2022-07-31T14:40:05;7.60;;;4.25;;
58095;SDS011;43908;53.038;6.666;2022-07-31T14:42:31;5.13;;;4.47;;
58095;SDS011;43908;53.038;6.666;2022-07-31T14:44:57;4.55;;;4.15;;
58095;SDS011;43908;53.038;6.666;2022-07-31T14:47:23;4.60;;;4.20;;
58095;SDS011;43908;53.038;6.666;2022-07-31T14:49:48;4.45;;;4.15;;
58095;SDS011;43908;53.038;6.666;2022-07-31T14:52:14;4.25;;;3.90;;
58095;SDS011;43908;53.038;6.666;2022-07-31T14:54:40;4.10;;;3.80;;
58095;SDS011;43908;53.038;6.666;2022-07-31T14:57:05;4.55;;;4.15;;